createdAt,value
2019-05-07T00:01:04.989Z,85.37
2019-05-07T00:03:33.913Z,85.12
2019-05-07T00:06:02.905Z,85.19
2019-05-07T00:08:32.238Z,84.79
2019-05-07T00:11:02.270Z,85.20
2019-05-07T00:13:33.245Z,85.75
2019-05-07T00:16:02.476Z,86.29
2019-05-07T00:18:32.191Z,86.83
2019-05-07T00:21:03.346Z,86.28
2019-05-07T00:23:32.622Z,86.15
2019-05-07T00:26:02.448Z,85.98
2019-05-07T00:28:32.493Z,85.70
2019-05-07T00:31:02.869Z,85.93
2019-05-07T00:33:32.523Z,86.42
2019-05-07T00:36:12.978Z,85.97
2019-05-07T00:38:44.806Z,85.79
2019-05-07T00:41:23.246Z,85.18
2019-05-07T00:43:54.177Z,85.50
2019-05-07T00:46:25.874Z,85.33
2019-05-07T00:48:54.575Z,85.98
2019-05-07T00:51:27.741Z,85.73
2019-05-07T00:53:56.505Z,86.01
2019-05-07T00:56:27.784Z,86.22
2019-05-07T00:58:56.868Z,85.72
2019-05-07T01:01:26.126Z,86.72
2019-05-07T01:03:54.893Z,86.25
2019-05-07T01:06:26.642Z,86.46
2019-05-07T01:08:54.577Z,86.74
2019-05-07T01:11:23.755Z,86.56
2019-05-07T01:13:52.698Z,86.89
2019-05-07T01:16:22.214Z,87.19
2019-05-07T01:18:53.861Z,87.16
2019-05-07T01:21:22.846Z,87.09
2019-05-07T01:23:52.313Z,86.80
2019-05-07T01:26:21.902Z,86.70
2019-05-07T01:29:02.837Z,86.54
2019-05-07T01:31:43.000Z,85.72
2019-05-07T01:34:32.313Z,86.02
2019-05-07T01:37:02.690Z,86.89
2019-05-07T01:39:32.650Z,86.25
2019-05-07T01:42:02.285Z,86.21
2019-05-07T01:44:32.560Z,86.26
2019-05-07T01:47:02.531Z,86.64
2019-05-07T01:49:33.032Z,86.85
2019-05-07T01:52:02.651Z,86.57
2019-05-07T01:54:33.264Z,85.96
2019-05-07T01:57:03.007Z,86.23
2019-05-07T01:59:32.209Z,86.05
2019-05-07T02:02:06.317Z,85.95
2019-05-07T02:04:43.839Z,86.18
2019-05-07T02:07:34.573Z,86.01
2019-05-07T02:10:25.504Z,86.19
2019-05-07T02:12:54.401Z,86.08
2019-05-07T02:15:23.238Z,86.07
2019-05-07T02:17:52.646Z,86.31
2019-05-07T02:20:22.524Z,85.81
2019-05-07T02:22:53.261Z,85.81
2019-05-07T02:25:22.239Z,86.27
2019-05-07T02:27:52.881Z,86.52
2019-05-07T02:30:23.820Z,85.74
2019-05-07T02:32:54.008Z,85.97
2019-05-07T02:35:23.667Z,86.48
2019-05-07T02:38:03.121Z,86.09
2019-05-07T02:40:38.470Z,85.59
2019-05-07T02:43:07.400Z,85.78
2019-05-07T02:45:47.799Z,85.21
2019-05-07T02:48:19.849Z,84.90
2019-05-07T02:50:56.669Z,85.81
2019-05-07T02:53:33.683Z,85.98
2019-05-07T02:56:03.621Z,85.99
2019-05-07T02:58:33.132Z,85.97
2019-05-07T03:01:04.793Z,85.74
2019-05-07T03:03:33.497Z,86.19
2019-05-07T03:06:05.133Z,84.34
2019-05-07T03:08:33.826Z,83.65
2019-05-07T03:11:03.481Z,83.94
2019-05-07T03:13:33.906Z,84.55
2019-05-07T03:16:03.771Z,84.36
2019-05-07T03:18:33.877Z,83.76
2019-05-07T03:21:12.786Z,84.21
2019-05-07T03:24:03.663Z,83.77
2019-05-07T03:26:36.691Z,84.09
2019-05-07T03:29:09.109Z,83.80
2019-05-07T03:31:55.639Z,85.29
2019-05-07T03:34:47.134Z,86.06
2019-05-07T03:37:18.947Z,85.33
2019-05-07T03:39:47.948Z,85.29
2019-05-07T03:42:18.495Z,84.48
2019-05-07T03:45:15.412Z,85.32
2019-05-07T03:47:47.211Z,85.29
2019-05-07T03:50:16.350Z,84.42
2019-05-07T03:52:45.044Z,84.66
2019-05-07T03:55:14.798Z,84.47
2019-05-07T03:57:44.187Z,84.99
2019-05-07T04:00:13.568Z,84.27
2019-05-07T04:02:43.754Z,83.98
2019-05-07T04:05:13.939Z,84.13
2019-05-07T04:07:43.621Z,84.01
2019-05-07T04:10:14.905Z,82.88
2019-05-07T04:12:44.149Z,83.26
2019-05-07T04:15:15.491Z,84.02
2019-05-07T04:17:44.033Z,84.71
2019-05-07T04:20:13.799Z,84.46
2019-05-07T04:22:43.266Z,84.51
2019-05-07T04:25:34.758Z,84.85
2019-05-07T04:28:14.125Z,84.90
2019-05-07T04:30:43.781Z,84.67
2019-05-07T04:33:14.380Z,85.02
2019-05-07T04:35:48.703Z,84.38
2019-05-07T04:38:17.894Z,84.70
2019-05-07T04:40:47.057Z,84.93
2019-05-07T04:43:15.741Z,84.71
2019-05-07T04:45:44.647Z,84.80
2019-05-07T04:48:14.250Z,84.53
2019-05-07T04:50:47.903Z,84.82
2019-05-07T04:53:15.522Z,84.90
2019-05-07T04:55:44.451Z,84.56
2019-05-07T04:58:14.086Z,85.34
2019-05-07T05:00:43.484Z,85.40
2019-05-07T05:03:23.750Z,86.04
2019-05-07T05:05:53.266Z,86.52
2019-05-07T05:08:23.460Z,85.59
2019-05-07T05:10:53.727Z,85.40
2019-05-07T05:13:23.773Z,85.54
2019-05-07T05:15:52.949Z,85.48
2019-05-07T05:18:22.147Z,84.96
2019-05-07T05:21:04.676Z,85.65
2019-05-07T05:23:45.106Z,85.68
2019-05-07T05:26:13.773Z,85.67
2019-05-07T05:28:42.556Z,85.82
2019-05-07T05:31:12.678Z,86.33
2019-05-07T05:33:42.114Z,86.21
2019-05-07T05:36:12.653Z,85.67
2019-05-07T05:38:42.383Z,85.51
2019-05-07T05:41:12.324Z,84.50
2019-05-07T05:44:11.855Z,84.14
2019-05-07T05:46:42.697Z,83.33
2019-05-07T05:49:11.881Z,83.25
2019-05-07T05:52:08.741Z,83.81
2019-05-07T05:54:56.372Z,84.30
2019-05-07T05:57:34.819Z,84.45
2019-05-07T06:00:38.701Z,84.36
2019-05-07T06:03:29.652Z,84.43
2019-05-07T06:06:07.462Z,85.04
2019-05-07T06:08:44.772Z,84.69
2019-05-07T06:11:32.899Z,84.66
2019-05-07T06:14:06.862Z,84.77
2019-05-07T06:16:38.906Z,83.93
2019-05-07T06:19:13.753Z,83.69
2019-05-07T06:22:16.942Z,83.62
2019-05-07T06:24:53.137Z,83.97
2019-05-07T06:27:22.955Z,83.80
2019-05-07T06:29:52.457Z,83.28
2019-05-07T06:32:22.928Z,82.56
2019-05-07T06:34:52.292Z,83.06
2019-05-07T06:37:22.868Z,83.24
2019-05-07T06:40:02.612Z,83.27
2019-05-07T06:42:52.240Z,81.98
2019-05-07T06:45:26.788Z,78.31
2019-05-07T06:47:55.466Z,77.92
2019-05-07T06:50:24.250Z,75.81
2019-05-07T06:52:53.196Z,76.30
2019-05-07T06:55:22.878Z,76.78
2019-05-07T06:57:53.046Z,76.66
2019-05-07T07:00:42.205Z,75.58
2019-05-07T07:03:17.906Z,77.32
2019-05-07T07:06:12.633Z,77.10
2019-05-07T07:09:02.593Z,76.92
2019-05-07T07:11:36.645Z,78.12
2019-05-07T07:14:05.780Z,73.76
2019-05-07T07:16:34.549Z,74.52
2019-05-07T07:19:03.484Z,74.34
2019-05-07T07:21:32.779Z,72.88
2019-05-07T07:24:03.035Z,74.69
2019-05-07T07:26:36.322Z,76.99
2019-05-07T07:29:05.869Z,77.16
2019-05-07T07:31:42.592Z,76.99
2019-05-07T07:34:12.987Z,74.81
2019-05-07T07:37:05.020Z,73.18
2019-05-07T07:39:22.759Z,74.11
2019-05-07T07:41:54.650Z,74.62
2019-05-07T07:44:23.411Z,73.81
2019-05-07T07:46:53.103Z,76.45
2019-05-07T07:49:22.484Z,72.77
2019-05-07T07:51:52.585Z,71.31
2019-05-07T07:54:22.662Z,74.95
2019-05-07T07:56:58.569Z,74.43
2019-05-07T07:59:45.595Z,74.54
2019-05-07T08:02:42.521Z,74.60
2019-05-07T08:05:12.487Z,74.26
2019-05-07T08:07:42.606Z,74.36
2019-05-07T08:10:12.836Z,73.30
2019-05-07T08:12:42.428Z,73.87
2019-05-07T08:15:18.106Z,68.64
2019-05-07T08:17:42.038Z,69.58
2019-05-07T08:20:12.958Z,67.62
2019-05-07T08:22:42.338Z,68.63
2019-05-07T08:25:12.506Z,66.83
2019-05-07T08:27:42.053Z,67.85
2019-05-07T08:30:13.676Z,66.54
2019-05-07T08:32:52.938Z,67.23
2019-05-07T08:35:41.912Z,66.42
2019-05-07T08:38:12.758Z,67.24
2019-05-07T08:40:41.899Z,64.73
2019-05-07T08:43:12.615Z,65.52
2019-05-07T08:45:56.835Z,66.65
2019-05-07T08:48:33.379Z,65.90
2019-05-07T08:51:02.585Z,66.40
2019-05-07T08:53:32.825Z,65.37
2019-05-07T08:56:03.219Z,64.74
2019-05-07T08:58:32.268Z,64.72
2019-05-07T09:01:03.642Z,65.23
2019-05-07T09:03:44.655Z,65.73
2019-05-07T09:06:14.791Z,62.21
2019-05-07T09:08:43.724Z,61.35
2019-05-07T09:11:13.382Z,60.04
2019-05-07T09:13:42.761Z,63.73
2019-05-07T09:16:12.946Z,63.50
2019-05-07T09:18:42.283Z,61.84
2019-05-07T09:21:12.556Z,63.41
2019-05-07T09:23:42.435Z,63.38
2019-05-07T09:26:13.894Z,64.57
2019-05-07T09:29:02.657Z,66.10
2019-05-07T09:31:43.081Z,65.92
2019-05-07T09:34:11.848Z,64.67
2019-05-07T09:36:51.844Z,66.44
2019-05-07T09:39:22.122Z,66.10
2019-05-07T09:41:52.641Z,64.31
2019-05-07T09:44:22.187Z,65.47
2019-05-07T09:46:54.040Z,64.27
2019-05-07T09:49:22.738Z,64.05
2019-05-07T09:51:52.051Z,64.30
2019-05-07T09:54:22.980Z,63.59
2019-05-07T09:56:52.590Z,65.25
2019-05-07T09:59:21.917Z,60.95
2019-05-07T10:01:50.784Z,62.49
2019-05-07T10:04:22.232Z,61.71
2019-05-07T10:06:51.885Z,63.35
2019-05-07T10:09:22.304Z,65.77
2019-05-07T10:12:02.754Z,65.78
2019-05-07T10:14:33.115Z,63.59
2019-05-07T10:17:27.098Z,60.68
2019-05-07T10:19:56.028Z,59.91
2019-05-07T10:22:24.873Z,63.59
2019-05-07T10:24:53.634Z,64.87
2019-05-07T10:27:22.468Z,61.50
2019-05-07T10:29:53.029Z,60.73
2019-05-07T10:32:22.132Z,58.82
2019-05-07T10:34:52.516Z,58.58
2019-05-07T10:37:21.331Z,57.50
2019-05-07T10:39:51.889Z,55.54
2019-05-07T10:42:22.603Z,58.22
2019-05-07T10:45:05.644Z,59.47
2019-05-07T10:47:58.406Z,57.37
2019-05-07T10:50:37.969Z,58.33
2019-05-07T10:53:01.930Z,57.68
2019-05-07T10:55:32.598Z,58.17
2019-05-07T10:58:02.770Z,57.66
2019-05-07T11:00:33.083Z,58.69
2019-05-07T11:03:02.541Z,58.33
2019-05-07T11:05:32.586Z,58.63
2019-05-07T11:08:02.467Z,58.82
2019-05-07T11:10:32.702Z,56.81
2019-05-07T11:13:02.397Z,57.15
2019-05-07T11:15:32.601Z,58.25
2019-05-07T11:18:12.796Z,59.35
2019-05-07T11:20:49.813Z,60.08
2019-05-07T11:23:12.391Z,58.41
2019-05-07T11:25:42.121Z,59.42
2019-05-07T11:28:12.390Z,59.97
2019-05-07T11:30:42.555Z,58.51
2019-05-07T11:33:12.828Z,58.79
2019-05-07T11:35:42.454Z,58.58
2019-05-07T11:38:20.788Z,58.89
2019-05-07T11:40:42.722Z,59.08
2019-05-07T11:43:22.283Z,56.24
2019-05-07T11:45:58.825Z,55.33
2019-05-07T11:48:27.661Z,55.06
2019-05-07T11:51:04.352Z,56.90
2019-05-07T11:53:32.944Z,54.08
2019-05-07T11:56:02.527Z,54.08
2019-05-07T11:58:32.534Z,54.50
2019-05-07T12:01:15.213Z,52.28
2019-05-07T12:03:44.153Z,53.58
2019-05-07T12:06:13.184Z,50.63
2019-05-07T12:08:48.220Z,50.63
2019-05-07T12:11:12.473Z,52.36
2019-05-07T12:13:43.294Z,50.45
2019-05-07T12:16:14.204Z,50.76
2019-05-07T12:18:43.185Z,49.86
2019-05-07T12:21:20.633Z,50.98
2019-05-07T12:23:42.972Z,54.97
2019-05-07T12:26:12.610Z,51.33
2019-05-07T12:28:41.946Z,51.06
2019-05-07T12:31:28.344Z,49.34
2019-05-07T12:34:02.611Z,46.83
2019-05-07T12:36:33.130Z,46.25
2019-05-07T12:39:02.324Z,48.95
2019-05-07T12:41:33.722Z,51.23
2019-05-07T12:44:04.807Z,50.49
2019-05-07T12:46:33.880Z,50.13
2019-05-07T12:49:03.228Z,46.85
2019-05-07T12:51:38.106Z,51.05
2019-05-07T12:54:29.069Z,47.87
2019-05-07T12:56:57.858Z,49.25
2019-05-07T12:59:26.616Z,50.83
2019-05-07T13:02:21.376Z,51.23
2019-05-07T13:04:41.803Z,49.34
2019-05-07T13:07:15.907Z,49.96
2019-05-07T13:09:44.695Z,47.36
2019-05-07T13:12:13.402Z,50.11
2019-05-07T13:14:42.338Z,52.90
2019-05-07T13:17:12.113Z,47.58
2019-05-07T13:19:41.992Z,46.71
2019-05-07T13:22:12.433Z,50.68
2019-05-07T13:24:42.487Z,49.40
2019-05-07T13:27:11.406Z,48.33
2019-05-07T13:29:44.573Z,45.82
2019-05-07T13:32:13.928Z,44.83
2019-05-07T13:34:42.872Z,48.16
2019-05-07T13:37:17.726Z,48.28
2019-05-07T13:39:54.376Z,49.77
2019-05-07T13:42:44.125Z,44.06
2019-05-07T13:45:31.992Z,43.06
2019-05-07T13:48:08.743Z,42.70
2019-05-07T13:50:38.098Z,44.59
2019-05-07T13:53:07.134Z,46.88
2019-05-07T13:55:36.736Z,46.73
2019-05-07T13:58:05.594Z,48.94
2019-05-07T14:00:39.443Z,46.72
2019-05-07T14:03:08.213Z,45.68
2019-05-07T14:05:37.271Z,46.16
2019-05-07T14:08:06.605Z,44.77
2019-05-07T14:10:35.350Z,46.97
2019-05-07T14:13:11.147Z,45.64
2019-05-07T14:15:35.362Z,46.49
2019-05-07T14:18:04.485Z,45.70
2019-05-07T14:20:33.201Z,44.98
2019-05-07T14:23:01.915Z,45.19
2019-05-07T14:25:32.544Z,48.76
2019-05-07T14:28:02.252Z,46.74
2019-05-07T14:30:32.840Z,48.95
2019-05-07T14:33:08.217Z,48.46
2019-05-07T14:35:42.694Z,47.76
2019-05-07T14:38:32.065Z,49.09
2019-05-07T14:41:02.642Z,50.06
2019-05-07T14:43:37.743Z,48.35
2019-05-07T14:46:06.499Z,46.26
2019-05-07T14:48:36.274Z,46.25
2019-05-07T14:51:05.423Z,45.86
2019-05-07T14:53:34.300Z,43.84
2019-05-07T14:56:03.103Z,44.12
2019-05-07T14:58:32.015Z,45.70
2019-05-07T15:01:02.410Z,46.51
2019-05-07T15:03:32.057Z,47.04
2019-05-07T15:06:02.027Z,47.92
2019-05-07T15:08:32.284Z,48.26
2019-05-07T15:11:02.718Z,48.92
2019-05-07T15:13:32.269Z,51.44
2019-05-07T15:16:03.073Z,50.57
2019-05-07T15:19:03.059Z,50.73
2019-05-07T15:21:32.460Z,51.88
2019-05-07T15:24:02.411Z,50.68
2019-05-07T15:26:32.642Z,51.55
2019-05-07T15:29:11.868Z,51.81
2019-05-07T15:32:14.262Z,51.58
2019-05-07T15:35:26.665Z,53.58
2019-05-07T15:37:55.718Z,53.42
2019-05-07T15:40:24.850Z,54.29
2019-05-07T15:43:13.134Z,55.39
2019-05-07T15:45:42.133Z,55.39
2019-05-07T15:48:12.694Z,55.44
2019-05-07T15:50:42.885Z,55.05
2019-05-07T15:53:32.376Z,55.50
2019-05-07T15:56:01.856Z,55.12
2019-05-07T15:58:30.609Z,55.82
2019-05-07T16:01:02.061Z,54.92
2019-05-07T16:03:35.138Z,54.91
2019-05-07T16:06:04.073Z,55.34
2019-05-07T16:08:35.849Z,55.14
2019-05-07T16:11:04.635Z,55.17
2019-05-07T16:13:35.081Z,54.57
2019-05-07T16:16:03.773Z,55.31
2019-05-07T16:18:38.124Z,54.76
2019-05-07T16:21:07.330Z,54.70
2019-05-07T16:23:38.947Z,53.14
2019-05-07T16:26:07.967Z,54.60
2019-05-07T16:28:36.956Z,52.00
2019-05-07T16:31:05.684Z,52.17
2019-05-07T16:33:34.812Z,51.81
2019-05-07T16:36:03.658Z,52.37
2019-05-07T16:38:32.803Z,54.08
2019-05-07T16:41:01.518Z,54.80
2019-05-07T16:43:30.218Z,53.68
2019-05-07T16:45:58.915Z,54.18
2019-05-07T16:48:27.598Z,55.12
2019-05-07T16:50:56.753Z,53.78
2019-05-07T16:53:30.104Z,52.09
2019-05-07T16:55:56.115Z,52.64
2019-05-07T16:58:38.628Z,53.48
2019-05-07T17:01:09.077Z,55.10
2019-05-07T17:03:44.971Z,55.41
2019-05-07T17:06:13.672Z,54.11
2019-05-07T17:08:55.952Z,54.42
2019-05-07T17:11:24.843Z,56.97
2019-05-07T17:13:53.683Z,54.59
2019-05-07T17:16:22.918Z,52.36
2019-05-07T17:18:52.021Z,52.84
2019-05-07T17:21:21.810Z,54.47
2019-05-07T17:23:51.931Z,56.80
2019-05-07T17:26:23.031Z,55.41
2019-05-07T17:28:52.095Z,55.64
2019-05-07T17:31:22.927Z,57.32
2019-05-07T17:33:51.709Z,58.32
2019-05-07T17:36:22.286Z,58.35
2019-05-07T17:38:51.975Z,58.74
2019-05-07T17:41:26.543Z,58.84
2019-05-07T17:43:52.173Z,59.82
2019-05-07T17:46:21.789Z,59.52
2019-05-07T17:48:52.434Z,58.83
2019-05-07T17:51:42.174Z,57.45
2019-05-07T17:54:13.134Z,57.45
2019-05-07T17:56:42.283Z,57.99
2019-05-07T17:59:12.188Z,56.51
2019-05-07T18:02:01.924Z,56.51
2019-05-07T18:04:36.538Z,56.33
2019-05-07T18:07:02.989Z,56.47
2019-05-07T18:09:32.012Z,57.36
2019-05-07T18:12:00.779Z,57.03
2019-05-07T18:14:32.378Z,55.95
2019-05-07T18:17:21.919Z,58.17
2019-05-07T18:19:50.738Z,58.32
2019-05-07T18:22:19.427Z,59.04
2019-05-07T18:24:48.452Z,60.20
2019-05-07T18:27:22.758Z,60.91
2019-05-07T18:29:52.254Z,62.13
2019-05-07T18:32:21.939Z,62.30
2019-05-07T18:34:51.953Z,62.07
2019-05-07T18:37:22.761Z,61.90
2019-05-07T18:39:52.203Z,62.25
2019-05-07T18:42:22.208Z,63.37
2019-05-07T18:44:52.452Z,63.37
2019-05-07T18:47:22.319Z,62.57
2019-05-07T18:49:51.985Z,62.57
2019-05-07T18:52:22.796Z,62.47
2019-05-07T18:54:52.081Z,62.76
2019-05-07T18:57:22.233Z,62.61
2019-05-07T18:59:53.154Z,63.02
2019-05-07T19:02:22.561Z,63.41
2019-05-07T19:04:51.993Z,63.77
2019-05-07T19:07:23.107Z,63.08
2019-05-07T19:09:52.388Z,64.06
2019-05-07T19:12:23.798Z,63.51
2019-05-07T19:14:52.715Z,64.09
2019-05-07T19:17:22.204Z,63.93
2019-05-07T19:19:52.538Z,64.07
2019-05-07T19:22:22.187Z,63.97
2019-05-07T19:24:52.699Z,63.91
2019-05-07T19:27:22.099Z,64.97
2019-05-07T19:29:51.172Z,65.59
2019-05-07T19:32:19.934Z,65.67
2019-05-07T19:34:48.949Z,66.32
2019-05-07T19:37:17.720Z,67.00
2019-05-07T19:39:46.504Z,67.79
2019-05-07T19:42:15.213Z,67.62
2019-05-07T19:44:43.913Z,67.73
2019-05-07T19:47:12.858Z,66.70
2019-05-07T19:49:42.033Z,66.94
2019-05-07T19:52:12.511Z,67.22
2019-05-07T19:54:44.350Z,67.11
2019-05-07T19:57:14.739Z,67.80
2019-05-07T19:59:43.677Z,68.14
2019-05-07T20:02:14.939Z,68.39
2019-05-07T20:04:43.622Z,68.51
2019-05-07T20:07:12.333Z,68.42
2019-05-07T20:09:42.867Z,69.10
2019-05-07T20:12:11.594Z,69.42
2019-05-07T20:14:42.196Z,69.27
2019-05-07T20:17:12.250Z,69.83
2019-05-07T20:19:41.799Z,69.99
2019-05-07T20:22:12.634Z,69.71
2019-05-07T20:24:43.297Z,69.59
2019-05-07T20:27:14.360Z,69.31
2019-05-07T20:29:43.217Z,69.77
2019-05-07T20:32:12.005Z,70.17
2019-05-07T20:34:42.308Z,70.21
2019-05-07T20:37:12.917Z,70.58
2019-05-07T20:39:43.092Z,70.78
2019-05-07T20:42:12.439Z,70.52
2019-05-07T20:44:42.640Z,70.21
2019-05-07T20:47:12.673Z,70.36
2019-05-07T20:49:42.732Z,70.68
2019-05-07T20:52:11.629Z,70.93
2019-05-07T20:54:45.929Z,71.55
2019-05-07T20:57:17.692Z,71.13
2019-05-07T20:59:46.397Z,71.40
2019-05-07T21:02:17.505Z,71.26
2019-05-07T21:04:46.202Z,71.47
2019-05-07T21:07:15.146Z,71.38
2019-05-07T21:09:44.092Z,71.50
2019-05-07T21:12:13.054Z,71.56
2019-05-07T21:14:41.898Z,71.61
2019-05-07T21:17:11.953Z,71.73
2019-05-07T21:19:42.769Z,71.54
2019-05-07T21:22:13.000Z,72.24
2019-05-07T21:24:42.326Z,72.05
2019-05-07T21:27:12.201Z,71.86
2019-05-07T21:29:42.236Z,71.91
2019-05-07T21:32:12.389Z,71.82
2019-05-07T21:34:43.348Z,71.85
2019-05-07T21:37:12.815Z,71.95
2019-05-07T21:39:42.407Z,72.30
2019-05-07T21:42:13.906Z,72.22
2019-05-07T21:44:43.037Z,72.26
2019-05-07T21:47:12.997Z,72.28
2019-05-07T21:49:43.038Z,72.24
2019-05-07T21:52:12.687Z,72.29
2019-05-07T21:54:52.538Z,72.85
2019-05-07T21:57:47.308Z,72.76
2019-05-07T22:00:22.215Z,72.54
2019-05-07T22:02:52.621Z,72.20
2019-05-07T22:05:22.508Z,72.11
2019-05-07T22:07:54.117Z,72.28
2019-05-07T22:10:22.310Z,72.59
2019-05-07T22:12:52.112Z,72.75
2019-05-07T22:15:22.544Z,72.75
2019-05-07T22:17:52.106Z,72.85
2019-05-07T22:20:21.869Z,72.74
2019-05-07T22:22:52.148Z,73.25
2019-05-07T22:25:22.219Z,73.61
2019-05-07T22:27:53.028Z,73.61
2019-05-07T22:30:27.897Z,73.15
2019-05-07T22:33:02.465Z,73.11
2019-05-07T22:35:38.040Z,73.55
2019-05-07T22:38:06.745Z,73.42
2019-05-07T22:40:35.470Z,73.71
2019-05-07T22:43:04.160Z,73.42
2019-05-07T22:45:32.852Z,72.91
2019-05-07T22:48:02.856Z,72.91
2019-05-07T22:50:33.180Z,72.48
2019-05-07T22:53:02.442Z,73.01
2019-05-07T22:55:32.657Z,72.92
2019-05-07T22:58:25.922Z,73.05
2019-05-07T23:00:59.141Z,72.95
2019-05-07T23:03:27.843Z,73.17
2019-05-07T23:06:07.082Z,73.50
2019-05-07T23:08:37.624Z,73.23
2019-05-07T23:11:06.717Z,72.95
2019-05-07T23:13:36.593Z,72.42
2019-05-07T23:16:05.979Z,73.18
2019-05-07T23:18:34.741Z,73.35
2019-05-07T23:21:03.816Z,73.46
2019-05-07T23:23:32.616Z,73.23
2019-05-07T23:26:02.932Z,73.70
2019-05-07T23:28:32.370Z,73.87
2019-05-07T23:31:02.552Z,73.63
2019-05-07T23:33:32.188Z,73.18
2019-05-07T23:36:02.180Z,73.09
2019-05-07T23:38:31.962Z,73.47
2019-05-07T23:41:25.911Z,73.49
2019-05-07T23:44:12.406Z,73.33
2019-05-07T23:46:42.608Z,73.34
2019-05-07T23:49:12.558Z,73.02
2019-05-07T23:51:42.957Z,73.13
2019-05-07T23:54:12.303Z,73.55
2019-05-07T23:56:42.808Z,73.68
2019-05-07T23:59:12.692Z,73.78
